Time;durP1;ratioP1;P1;durP2;ratioP2;P2;SDS_P1;SDS_P2;PMS_P1;PMS_P2;Temp;Humidity;BMP_temperature;BMP_pressure;BME280_temperature;BME280_humidity;BME280_pressure;Samples;Min_cycle;Max_cycle;Signal;HPM_P1;HPM_P2
2023/10/15 00:01:57;;;;;;;1.53;1.03;;;19.10;65.00;;;;;;6215701;23;20169;-89
2023/10/15 00:04:33;;;;;;;0.40;0.40;;;19.10;65.30;;;;;;6216466;23;20625;-91
2023/10/15 00:07:06;;;;;;;1.47;0.73;;;19.10;65.70;;;;;;6216136;23;20245;-89
2023/10/15 00:09:34;;;;;;;2.27;0.67;;;19.00;65.90;;;;;;6215917;23;20242;-89
2023/10/15 00:12:04;;;;;;;5.60;1.57;;;18.90;66.20;;;;;;6216086;23;20195;-89
2023/10/15 00:14:33;;;;;;;0.60;0.60;;;18.90;66.50;;;;;;6214643;23;20167;-89
2023/10/15 00:17:10;;;;;;;0.90;0.87;;;18.90;66.70;;;;;;6215681;23;20246;-88
2023/10/15 00:19:45;;;;;;;1.93;0.60;;;18.90;66.90;;;;;;6215795;23;20816;-90
2023/10/15 00:22:13;;;;;;;2.43;1.37;;;18.80;67.00;;;;;;6216129;23;20163;-90
2023/10/15 00:24:44;;;;;;;0.93;0.50;;;18.80;67.00;;;;;;6214948;23;20238;-90
2023/10/15 00:27:21;;;;;;;1.10;0.93;;;18.70;67.00;;;;;;6215772;23;20288;-89
2023/10/15 00:29:58;;;;;;;4.63;1.03;;;18.70;67.40;;;;;;6215681;23;20241;-90
2023/10/15 00:32:30;;;;;;;1.60;1.07;;;18.60;67.40;;;;;;6217191;23;20167;-91
2023/10/15 00:35:08;;;;;;;3.13;1.63;;;18.60;67.70;;;;;;6215512;23;20593;-90
2023/10/15 00:37:40;;;;;;;0.60;0.60;;;18.60;67.70;;;;;;6215964;23;20210;-88
2023/10/15 00:40:16;;;;;;;1.00;1.00;;;18.60;67.40;;;;;;6215722;23;20171;-88
2023/10/15 00:42:46;;;;;;;1.43;1.33;;;18.50;67.20;;;;;;6216536;23;20167;-87
2023/10/15 00:45:22;;;;;;;0.93;0.70;;;18.50;67.20;;;;;;6216813;23;20231;-89
2023/10/15 00:48:07;;;;;;;1.80;1.00;;;18.50;67.30;;;;;;6215901;23;20194;-88
2023/10/15 00:50:51;;;;;;;2.40;1.43;;;18.50;67.50;;;;;;6216169;23;20167;-89
2023/10/15 00:53:23;;;;;;;7.27;2.40;;;18.50;67.50;;;;;;6216233;23;20186;-90
2023/10/15 00:55:55;;;;;;;2.70;1.43;;;18.50;67.40;;;;;;6216038;23;20167;-90
2023/10/15 00:58:34;;;;;;;1.70;1.13;;;18.40;67.30;;;;;;6217021;23;20233;-90
2023/10/15 01:03:56;;;;;;;0.87;0.77;;;18.40;67.30;;;;;;6217946;23;20170;-89
2023/10/15 01:06:35;;;;;;;1.17;0.97;;;18.40;67.70;;;;;;6218314;23;20171;-91
2023/10/15 01:09:11;;;;;;;1.80;1.13;;;18.30;67.70;;;;;;6218532;23;20162;-90
2023/10/15 01:11:56;;;;;;;1.10;1.00;;;18.30;67.70;;;;;;6217534;23;20194;-89
2023/10/15 01:14:31;;;;;;;1.73;0.90;;;18.20;67.60;;;;;;6218187;23;20248;-89
2023/10/15 01:17:09;;;;;;;1.43;1.33;;;18.20;67.60;;;;;;6217026;23;20182;-89
2023/10/15 01:19:45;;;;;;;0.77;0.63;;;18.20;67.50;;;;;;6216135;23;20186;-90
2023/10/15 01:22:25;;;;;;;1.70;0.87;;;18.20;67.60;;;;;;6217773;23;20167;-89
2023/10/15 01:25:24;;;;;;;2.67;1.30;;;18.20;67.50;;;;;;6216336;23;20209;-91
2023/10/15 01:28:00;;;;;;;1.33;1.23;;;18.20;67.80;;;;;;6215921;23;20492;-89
2023/10/15 01:30:35;;;;;;;2.20;0.83;;;18.20;67.80;;;;;;6216705;23;20163;-90
2023/10/15 01:33:10;;;;;;;0.73;0.73;;;18.20;67.70;;;;;;6215374;23;20171;-91
2023/10/15 01:35:44;;;;;;;5.67;0.77;;;18.10;67.70;;;;;;6217310;23;20572;-90
2023/10/15 01:38:20;;;;;;;0.70;0.70;;;18.10;67.70;;;;;;6216908;23;20171;-89
2023/10/15 01:40:56;;;;;;;0.77;0.73;;;18.10;67.80;;;;;;6216279;23;20206;-89
2023/10/15 01:43:32;;;;;;;1.27;1.00;;;18.00;67.70;;;;;;6216765;23;20163;-89
2023/10/15 01:46:10;;;;;;;2.33;1.37;;;18.00;67.70;;;;;;6192149;23;20175;-89
2023/10/15 01:48:41;;;;;;;0.60;0.60;;;18.00;67.80;;;;;;6216782;23;20244;-90
2023/10/15 01:51:14;;;;;;;1.23;1.10;;;18.00;67.90;;;;;;6217399;23;20167;-90
2023/10/15 01:53:45;;;;;;;1.97;1.53;;;17.90;67.90;;;;;;6215565;23;20499;-89
2023/10/15 01:56:20;;;;;;;0.70;0.70;;;17.90;68.00;;;;;;6214178;23;20167;-89
2023/10/15 01:58:55;;;;;;;0.60;0.60;;;17.90;68.00;;;;;;6215376;23;20166;-89
2023/10/15 02:01:34;;;;;;;0.60;0.60;;;17.90;68.10;;;;;;6217591;23;20636;-89
2023/10/15 02:04:16;;;;;;;0.33;0.33;;;17.80;68.00;;;;;;6216954;23;20182;-89
2023/10/15 02:06:44;;;;;;;1.13;1.03;;;17.80;68.00;;;;;;6215427;23;20221;-89
2023/10/15 02:09:21;;;;;;;0.40;0.40;;;17.80;68.20;;;;;;6216297;23;20640;-89
2023/10/15 02:11:54;;;;;;;2.30;0.90;;;17.80;68.20;;;;;;6215985;23;20277;-91
2023/10/15 02:14:27;;;;;;;1.17;0.77;;;17.70;68.20;;;;;;6215870;23;20167;-89
2023/10/15 02:16:59;;;;;;;4.10;0.97;;;17.70;68.20;;;;;;6216823;23;20167;-89
2023/10/15 02:19:40;;;;;;;1.70;1.20;;;17.70;68.20;;;;;;6216693;23;20172;-90
2023/10/15 02:22:13;;;;;;;4.40;1.90;;;17.70;68.50;;;;;;6216813;23;20635;-89
2023/10/15 02:24:46;;;;;;;1.33;1.10;;;17.60;68.60;;;;;;6214859;23;20183;-89
2023/10/15 02:27:23;;;;;;;1.30;1.13;;;17.60;68.50;;;;;;6215922;23;20244;-90
2023/10/15 02:29:55;;;;;;;1.07;0.90;;;17.60;68.50;;;;;;6217085;23;20181;-90
2023/10/15 02:32:31;;;;;;;1.07;0.80;;;17.60;68.50;;;;;;6218435;23;20238;-89
2023/10/15 02:35:05;;;;;;;1.73;1.00;;;17.60;68.60;;;;;;6217419;23;20597;-89
2023/10/15 02:37:41;;;;;;;2.87;1.17;;;17.60;69.00;;;;;;6216058;23;20170;-89
2023/10/15 02:40:16;;;;;;;2.20;1.37;;;17.60;68.70;;;;;;6216606;23;20166;-92
2023/10/15 02:42:53;;;;;;;0.90;0.83;;;17.60;68.60;;;;;;6217729;23;20617;-89
2023/10/15 02:45:35;;;;;;;4.50;0.80;;;17.60;68.60;;;;;;6221118;23;20242;-90
2023/10/15 02:48:10;;;;;;;1.53;1.43;;;17.50;68.60;;;;;;6220427;23;20629;-90
2023/10/15 02:50:41;;;;;;;1.63;1.07;;;17.50;68.60;;;;;;6219861;23;20167;-90
2023/10/15 02:53:11;;;;;;;1.07;1.03;;;17.50;68.60;;;;;;6217849;23;20178;-89
2023/10/15 02:55:47;;;;;;;1.07;0.80;;;17.50;68.70;;;;;;6218259;23;20167;-89
2023/10/15 02:58:22;;;;;;;1.07;0.97;;;17.50;68.90;;;;;;6217692;23;20425;-89
2023/10/15 03:00:53;;;;;;;1.57;1.20;;;17.40;69.10;;;;;;6218036;23;20612;-88
2023/10/15 03:03:32;;;;;;;3.30;1.27;;;17.40;69.10;;;;;;6218730;23;20163;-89
2023/10/15 03:06:09;;;;;;;3.80;1.13;;;17.40;69.10;;;;;;6216391;23;20170;-90
2023/10/15 03:08:45;;;;;;;3.20;1.00;;;17.40;69.10;;;;;;6218284;23;20187;-90
2023/10/15 03:11:28;;;;;;;1.87;1.00;;;17.30;69.10;;;;;;6218589;23;20187;-89
2023/10/15 03:14:12;;;;;;;0.40;0.40;;;17.30;69.10;;;;;;6216619;23;20246;-89
2023/10/15 03:16:44;;;;;;;1.37;1.13;;;17.30;69.30;;;;;;6214129;23;20189;-91
2023/10/15 03:19:19;;;;;;;0.90;0.90;;;17.30;69.40;;;;;;6215127;23;20186;-90
2023/10/15 03:21:58;;;;;;;3.57;1.40;;;17.20;69.30;;;;;;6214434;23;20636;-89
2023/10/15 03:24:34;;;;;;;0.57;0.57;;;17.20;69.30;;;;;;6215520;23;20171;-88
2023/10/15 03:27:07;;;;;;;1.43;1.33;;;17.20;69.40;;;;;;6214643;23;20557;-89
2023/10/15 03:29:37;;;;;;;1.27;1.10;;;17.20;69.40;;;;;;6213150;23;20249;-89
2023/10/15 03:32:12;;;;;;;3.33;1.13;;;17.20;69.50;;;;;;6213689;23;20250;-89
2023/10/15 03:34:47;;;;;;;0.87;0.83;;;17.20;69.50;;;;;;6217056;23;20520;-89
2023/10/15 03:37:22;;;;;;;1.50;0.60;;;17.20;69.50;;;;;;6213737;23;20163;-91
2023/10/15 03:39:58;;;;;;;1.00;1.00;;;17.20;69.50;;;;;;6214845;23;20246;-90
2023/10/15 03:42:30;;;;;;;2.70;1.90;;;17.10;69.50;;;;;;6214692;23;20170;-91
2023/10/15 03:45:08;;;;;;;1.53;1.23;;;17.10;70.00;;;;;;6214494;23;20872;-87
2023/10/15 03:47:39;;;;;;;1.67;1.10;;;17.10;70.00;;;;;;6215922;23;20163;-89
2023/10/15 03:50:09;;;;;;;1.40;1.27;;;17.10;69.90;;;;;;6217769;23;20456;-90
2023/10/15 03:52:40;;;;;;;3.20;1.53;;;17.10;70.00;;;;;;6216026;23;20250;-90
2023/10/15 03:55:11;;;;;;;0.87;0.87;;;17.10;70.00;;;;;;6218808;23;20167;-90
2023/10/15 03:57:39;;;;;;;2.87;1.13;;;17.10;70.00;;;;;;6217078;23;20201;-90
2023/10/15 04:00:34;;;;;;;2.07;1.20;;;17.10;70.00;;;;;;6216890;23;20170;-91
2023/10/15 04:03:17;;;;;;;1.97;1.47;;;17.00;70.00;;;;;;6216478;23;20217;-90
2023/10/15 04:06:00;;;;;;;2.23;1.80;;;17.00;70.10;;;;;;6214451;23;20221;-89
2023/10/15 04:09:09;;;;;;;2.00;1.80;;;17.00;70.60;;;;;;6216016;23;20278;-91
2023/10/15 04:11:43;;;;;;;1.07;1.07;;;17.00;71.30;;;;;;6217919;23;20218;-90
2023/10/15 04:14:22;;;;;;;2.60;1.97;;;16.90;71.40;;;;;;6216629;23;20505;-91
2023/10/15 04:16:54;;;;;;;4.20;1.33;;;16.90;71.60;;;;;;6216840;23;20170;-90
2023/10/15 04:19:29;;;;;;;1.67;1.37;;;16.90;71.50;;;;;;6190767;23;20624;-91
2023/10/15 04:22:15;;;;;;;1.07;1.03;;;16.90;71.30;;;;;;6215368;23;20163;-91
2023/10/15 04:24:46;;;;;;;1.07;0.93;;;16.80;71.20;;;;;;6216524;23;20210;-91
2023/10/15 04:27:18;;;;;;;2.77;1.37;;;16.80;71.20;;;;;;6215123;23;20167;-91
2023/10/15 04:29:53;;;;;;;0.87;0.83;;;16.80;71.20;;;;;;6214945;23;20191;-90
2023/10/15 04:32:28;;;;;;;4.00;2.40;;;16.80;71.60;;;;;;6214061;23;20169;-90
2023/10/15 04:35:01;;;;;;;1.23;1.13;;;16.80;71.40;;;;;;6216782;23;20250;-88
2023/10/15 04:37:35;;;;;;;1.67;1.37;;;16.70;72.30;;;;;;6216918;23;20247;-88
2023/10/15 04:40:11;;;;;;;4.70;1.87;;;16.70;71.30;;;;;;6217832;23;20484;-88
2023/10/15 04:42:48;;;;;;;1.80;0.97;;;16.70;71.40;;;;;;6216623;23;20174;-88
2023/10/15 04:45:24;;;;;;;3.00;1.13;;;16.70;71.70;;;;;;6215786;23;20186;-89
2023/10/15 04:47:59;;;;;;;0.90;0.90;;;16.70;71.60;;;;;;6217482;23;20250;-89
2023/10/15 04:50:29;;;;;;;1.33;1.07;;;16.70;71.60;;;;;;6217684;23;20195;-89
2023/10/15 04:53:12;;;;;;;4.67;1.30;;;16.70;71.60;;;;;;6214910;23;20174;-91
2023/10/15 04:55:47;;;;;;;1.27;1.07;;;16.70;71.50;;;;;;6214126;23;20548;-88
2023/10/15 04:58:16;;;;;;;8.03;1.63;;;16.70;71.60;;;;;;6216930;23;20167;-89
2023/10/15 05:00:48;;;;;;;1.07;1.00;;;16.70;71.90;;;;;;6215380;23;20171;-89
2023/10/15 05:03:23;;;;;;;1.40;1.13;;;16.60;71.80;;;;;;6215347;23;20167;-90
2023/10/15 05:06:11;;;;;;;2.13;1.33;;;16.60;71.80;;;;;;6216104;23;20225;-90
2023/10/15 05:08:42;;;;;;;2.00;0.97;;;16.60;71.80;;;;;;6218173;23;20171;-89
2023/10/15 05:11:11;;;;;;;2.57;1.50;;;16.70;71.80;;;;;;6218324;23;20245;-90
2023/10/15 05:13:49;;;;;;;2.47;1.70;;;16.70;72.20;;;;;;6214157;23;20256;-92
2023/10/15 05:16:18;;;;;;;5.33;1.80;;;16.70;72.20;;;;;;6181153;23;20247;-90
2023/10/15 05:18:53;;;;;;;0.57;0.57;;;16.70;72.20;;;;;;6220031;23;20163;-91
2023/10/15 05:21:32;;;;;;;2.00;1.47;;;16.70;72.30;;;;;;6222300;23;20216;-91
2023/10/15 05:24:09;;;;;;;1.23;1.13;;;16.70;72.60;;;;;;6222222;23;20224;-91
2023/10/15 05:26:52;;;;;;;5.40;1.90;;;16.80;72.80;;;;;;6251065;22;20174;-90
2023/10/15 05:29:23;;;;;;;1.07;0.97;;;16.80;72.80;;;;;;6251190;22;20589;-91
2023/10/15 05:31:57;;;;;;;3.63;1.83;;;16.80;72.80;;;;;;6198715;23;20201;-89
2023/10/15 05:34:34;;;;;;;1.63;1.23;;;16.80;73.00;;;;;;6250724;22;20178;-90
2023/10/15 05:37:04;;;;;;;1.60;1.17;;;16.80;72.90;;;;;;6250515;22;20170;-90
2023/10/15 05:39:33;;;;;;;0.77;0.77;;;16.90;72.90;;;;;;6198991;23;20246;-89
2023/10/15 05:42:07;;;;;;;2.30;1.53;;;16.90;73.50;;;;;;6247963;22;20182;-89
2023/10/15 05:44:36;;;;;;;1.33;1.23;;;16.90;73.40;;;;;;6251932;22;20683;-90
2023/10/15 05:47:11;;;;;;;3.00;1.43;;;17.00;73.40;;;;;;6251839;22;20166;-91
2023/10/15 05:49:44;;;;;;;0.73;0.73;;;17.10;73.20;;;;;;6250329;22;20193;-90
2023/10/15 05:52:18;;;;;;;2.93;1.20;;;17.10;73.20;;;;;;6247240;22;20221;-90
2023/10/15 05:54:53;;;;;;;7.83;2.23;;;17.10;73.10;;;;;;6248470;22;20194;-91
2023/10/15 05:57:23;;;;;;;1.60;1.17;;;17.20;73.00;;;;;;6248939;22;20654;-90
2023/10/15 05:59:59;;;;;;;0.97;0.53;;;17.20;72.90;;;;;;6247099;22;20228;-90
2023/10/15 06:02:34;;;;;;;3.70;1.57;;;17.30;73.00;;;;;;6246332;22;20201;-86
2023/10/15 06:05:06;;;;;;;2.33;0.90;;;17.40;72.90;;;;;;6248707;22;20189;-90
2023/10/15 06:07:35;;;;;;;2.27;1.43;;;17.50;72.90;;;;;;6249886;22;20674;-90
2023/10/15 06:10:08;;;;;;;1.00;0.90;;;17.50;73.00;;;;;;6251352;22;20186;-89
2023/10/15 06:12:45;;;;;;;1.47;1.17;;;17.60;73.20;;;;;;6250188;22;20620;-89
2023/10/15 06:15:15;;;;;;;3.83;1.80;;;17.60;73.00;;;;;;6246663;22;20193;-90
2023/10/15 06:20:49;;;;;;;1.23;1.10;;;17.70;72.80;;;;;;6105757;23;20173;-89
2023/10/15 06:23:18;;;;;;;1.87;1.77;;;17.80;72.90;;;;;;6126331;23;20172;-89
2023/10/15 06:25:49;;;;;;;1.45;1.33;;;17.80;73.00;;;;;;6128063;23;20723;-89
2023/10/15 06:28:22;;;;;;;1.97;1.47;;;17.90;73.20;;;;;;6128679;23;20189;-89
2023/10/15 06:30:52;;;;;;;1.10;0.97;;;17.90;73.20;;;;;;6127287;23;20200;-88
2023/10/15 06:33:22;;;;;;;0.83;0.83;;;18.00;73.10;;;;;;6127052;23;20170;-90
2023/10/15 06:35:56;;;;;;;1.90;1.63;;;18.10;73.10;;;;;;6126418;23;20169;-88
2023/10/15 06:38:28;;;;;;;1.23;1.13;;;18.20;73.10;;;;;;6127951;23;20255;-89
2023/10/15 06:41:01;;;;;;;1.30;1.20;;;18.20;73.00;;;;;;6127436;23;20208;-88
2023/10/15 06:43:31;;;;;;;0.97;0.97;;;18.30;72.80;;;;;;6125758;23;20199;-89
2023/10/15 06:55:36;;;;;;;2.13;1.40;;;18.60;73.00;;;;;;6244788;22;20210;-91
2023/10/15 07:05:00;;;;;;;1.10;1.00;;;18.90;74.50;;;;;;6155666;23;20700;31
2023/10/15 07:07:33;;;;;;;3.23;2.03;;;19.00;75.30;;;;;;6173460;23;20196;-93
2023/10/15 07:10:15;;;;;;;0.73;0.73;;;19.00;76.00;;;;;;6174459;23;20196;-89
2023/10/15 07:12:47;;;;;;;3.43;1.63;;;19.10;75.70;;;;;;6153168;23;20196;-94
2023/10/15 07:15:23;;;;;;;0.80;0.80;;;19.20;75.80;;;;;;6152166;23;20228;-90
2023/10/15 07:17:56;;;;;;;1.60;1.17;;;19.20;75.50;;;;;;6178913;23;20168;-89
2023/10/15 12:16:40;;;;;;;;;;;;;;;;;;;;;
2023/10/15 12:22:47;;;;;;;1.20;1.10;;;27.00;48.50;;;;;;6207802;23;20167;-84
2023/10/15 12:25:16;;;;;;;0.75;0.75;;;27.00;48.30;;;;;;6214443;22;20188;-86
2023/10/15 12:27:53;;;;;;;1.20;0.88;;;27.10;48.90;;;;;;6273317;22;20166;-88
2023/10/15 12:30:44;;;;;;;2.13;0.85;;;27.20;49.20;;;;;;6271583;22;20197;-91
2023/10/15 12:33:18;;;;;;;0.63;0.60;;;27.30;49.30;;;;;;6261262;22;20174;-84
2023/10/15 13:37:15;;;;;;;0.70;0.70;;;27.90;47.60;;;;;;6266994;22;20205;-90
2023/10/15 13:39:56;;;;;;;0.65;0.65;;;27.90;47.70;;;;;;6272268;22;20168;-88
2023/10/15 13:42:29;;;;;;;1.05;1.00;;;27.90;47.70;;;;;;6272097;22;20170;-85
2023/10/15 13:44:59;;;;;;;0.60;0.60;;;28.10;47.80;;;;;;6270796;22;20596;-85
2023/10/15 13:47:29;;;;;;;4.63;1.85;;;28.00;47.50;;;;;;6269962;22;20170;-84
2023/10/15 13:50:00;;;;;;;0.65;0.50;;;27.90;47.40;;;;;;6273646;22;20647;-86
2023/10/15 13:52:31;;;;;;;0.57;0.52;;;27.90;47.70;;;;;;6275179;22;20185;-87
2023/10/15 13:55:04;;;;;;;0.43;0.40;;;27.90;47.60;;;;;;6270670;22;20424;-88
2023/10/15 13:57:33;;;;;;;0.93;0.80;;;27.90;48.00;;;;;;6273079;22;20169;-84
2023/10/15 14:00:11;;;;;;;3.30;1.80;;;27.90;48.10;;;;;;6272763;22;20162;-84
2023/10/15 14:02:41;;;;;;;2.10;1.35;;;27.80;48.20;;;;;;6270182;22;20197;-84
2023/10/15 14:05:13;;;;;;;1.40;0.90;;;27.80;48.00;;;;;;6242178;22;20165;-85
2023/10/15 14:07:45;;;;;;;2.33;0.90;;;27.80;47.70;;;;;;6268638;22;20169;-87
2023/10/15 14:10:15;;;;;;;1.40;1.25;;;27.80;48.10;;;;;;6271954;22;20176;-89
2023/10/15 14:12:49;;;;;;;0.65;0.65;;;27.70;48.00;;;;;;6271591;22;20205;-92
2023/10/15 14:15:31;;;;;;;1.20;0.80;;;27.70;47.90;;;;;;6271855;22;20168;-89
2023/10/15 14:18:01;;;;;;;1.30;1.15;;;27.70;48.00;;;;;;6268420;22;20166;-86
2023/10/15 14:20:29;;;;;;;1.33;1.20;;;27.60;48.00;;;;;;6271025;22;20884;-86
2023/10/15 14:23:05;;;;;;;1.75;1.05;;;27.60;48.10;;;;;;6269587;22;20168;-89
2023/10/15 14:25:34;;;;;;;4.10;1.85;;;27.50;48.40;;;;;;6257766;22;20168;-86
2023/10/15 14:38:15;;;;;;;4.93;1.90;;;27.30;48.90;;;;;;6204498;23;20194;-86
2023/10/15 14:40:44;;;;;;;3.78;1.02;;;27.30;49.00;;;;;;6209044;23;20203;-86
2023/10/15 14:43:14;;;;;;;2.10;1.35;;;27.20;49.20;;;;;;6157081;23;20258;-84
2023/10/15 14:45:43;;;;;;;0.50;0.30;;;27.10;49.50;;;;;;6207471;23;20198;-85
2023/10/15 14:48:17;;;;;;;1.15;1.05;;;27.00;49.70;;;;;;6211768;23;20178;-85
2023/10/15 14:50:48;;;;;;;1.45;0.73;;;27.00;50.00;;;;;;6210338;23;20629;-84
2023/10/15 14:53:19;;;;;;;0.73;0.73;;;26.90;50.20;;;;;;6208724;23;20175;-82
2023/10/15 14:55:49;;;;;;;1.42;1.33;;;26.90;50.50;;;;;;6211957;23;20164;-84
2023/10/15 14:58:18;;;;;;;1.40;0.98;;;26.80;50.70;;;;;;6214577;23;20164;-85
2023/10/15 15:00:47;;;;;;;2.42;1.55;;;26.80;50.80;;;;;;6210972;23;20183;-84
2023/10/15 15:03:20;;;;;;;1.85;1.00;;;26.80;51.10;;;;;;6210933;23;20175;-85
2023/10/15 15:05:50;;;;;;;1.25;1.15;;;26.70;51.30;;;;;;6210758;23;20209;-84
2023/10/15 15:08:21;;;;;;;1.35;1.23;;;26.60;51.40;;;;;;6212881;23;20174;-84
2023/10/15 15:10:50;;;;;;;1.35;0.90;;;26.60;51.50;;;;;;6212885;23;20167;-84
2023/10/15 15:13:18;;;;;;;1.00;0.85;;;26.60;51.60;;;;;;6212088;23;20199;-84
2023/10/15 15:15:47;;;;;;;0.35;0.35;;;26.50;51.80;;;;;;6216902;23;20155;-86
2023/10/15 15:18:19;;;;;;;1.25;0.82;;;26.50;51.80;;;;;;6224950;23;20167;-87
2023/10/15 15:21:01;;;;;;;1.23;0.75;;;26.50;51.90;;;;;;6229352;23;20175;-86
2023/10/15 15:23:31;;;;;;;0.77;0.57;;;26.40;52.10;;;;;;6232298;23;20166;-86
2023/10/15 15:26:02;;;;;;;1.02;0.82;;;26.30;52.20;;;;;;6230556;23;20729;-86
2023/10/15 15:28:32;;;;;;;0.90;0.80;;;26.30;52.30;;;;;;6235178;23;20207;-85
2023/10/15 15:31:09;;;;;;;0.40;0.40;;;26.30;52.40;;;;;;6233085;23;20182;-84
2023/10/15 15:33:40;;;;;;;1.88;0.70;;;26.20;52.60;;;;;;6229577;23;20167;-84
2023/10/15 15:36:21;;;;;;;0.50;0.50;;;26.20;52.70;;;;;;6228911;23;20163;-83
2023/10/15 15:38:55;;;;;;;1.98;0.73;;;26.10;52.70;;;;;;6231152;23;20213;-83
2023/10/15 15:41:32;;;;;;;1.60;1.10;;;26.00;52.80;;;;;;6225963;23;20171;-86
2023/10/15 15:44:01;;;;;;;0.90;0.80;;;26.00;53.00;;;;;;6214174;23;20683;-85
2023/10/15 15:46:30;;;;;;;1.30;1.20;;;25.90;53.30;;;;;;6210191;23;20167;-84
2023/10/15 15:49:00;;;;;;;1.65;1.25;;;25.90;53.30;;;;;;6210704;23;20174;-84
2023/10/15 15:51:29;;;;;;;1.77;1.42;;;25.80;53.30;;;;;;6211275;23;20168;-84
2023/10/15 15:54:06;;;;;;;1.20;1.05;;;25.80;53.40;;;;;;6210099;23;20198;-87
2023/10/15 15:56:38;;;;;;;0.50;0.50;;;25.80;53.50;;;;;;6209439;23;20202;-85
2023/10/15 15:59:07;;;;;;;0.43;0.43;;;25.70;53.50;;;;;;6208581;23;20429;-86
2023/10/15 16:01:35;;;;;;;0.98;0.68;;;25.70;53.80;;;;;;6209430;23;20218;-86
2023/10/15 16:04:12;;;;;;;1.95;0.70;;;25.60;53.80;;;;;;6209746;23;20163;-85
2023/10/15 16:06:44;;;;;;;0.82;0.82;;;25.60;54.00;;;;;;6208284;23;20617;-85
2023/10/15 16:09:14;;;;;;;0.95;0.90;;;25.50;54.10;;;;;;6211051;23;20639;-85
2023/10/15 16:11:46;;;;;;;0.57;0.50;;;25.50;54.30;;;;;;6210649;23;20594;-84
2023/10/15 16:14:18;;;;;;;2.05;1.05;;;25.40;54.20;;;;;;6210403;23;20167;-85
2023/10/15 16:16:47;;;;;;;2.15;1.35;;;25.40;54.30;;;;;;6210433;23;20170;-88
2023/10/15 16:19:18;;;;;;;1.38;1.15;;;25.40;54.30;;;;;;6208852;23;20171;-85
2023/10/15 16:21:47;;;;;;;0.60;0.60;;;25.30;54.30;;;;;;6208946;23;20222;-84
2023/10/15 16:24:17;;;;;;;0.40;0.40;;;25.20;54.20;;;;;;6208855;23;20186;-86
2023/10/15 16:26:46;;;;;;;2.40;0.95;;;25.20;54.30;;;;;;6211300;23;20197;-86
2023/10/15 16:29:15;;;;;;;1.00;0.47;;;25.20;54.40;;;;;;6208589;23;20579;-84
2023/10/15 16:31:44;;;;;;;0.22;0.22;;;25.10;54.40;;;;;;6183698;23;20605;-85
2023/10/15 16:34:13;;;;;;;0.47;0.47;;;25.10;54.50;;;;;;6211984;23;20570;-87
2023/10/15 16:36:46;;;;;;;1.95;0.98;;;25.00;54.60;;;;;;6212994;23;20613;-86
2023/10/15 16:39:17;;;;;;;0.90;0.77;;;25.00;54.70;;;;;;6212930;23;20167;-86
2023/10/15 16:41:48;;;;;;;0.85;0.75;;;24.90;54.70;;;;;;6213737;23;20159;-87
2023/10/15 16:44:20;;;;;;;0.75;0.75;;;24.80;54.70;;;;;;6214379;23;20168;-86
2023/10/15 16:46:52;;;;;;;1.17;0.70;;;24.80;54.90;;;;;;6215321;23;20155;-85
2023/10/15 16:49:21;;;;;;;0.50;0.50;;;24.70;55.00;;;;;;6214417;23;20553;-85
2023/10/15 16:51:50;;;;;;;1.45;1.35;;;24.70;55.10;;;;;;6212502;23;20163;-86
2023/10/15 16:54:21;;;;;;;0.75;0.75;;;24.60;55.20;;;;;;6214076;23;20254;-85
2023/10/15 16:56:49;;;;;;;2.17;0.65;;;24.50;55.20;;;;;;6213650;23;20527;-86
2023/10/15 16:59:18;;;;;;;1.05;0.90;;;24.50;55.30;;;;;;6214546;23;20174;-85
2023/10/15 17:01:47;;;;;;;0.43;0.43;;;24.40;55.40;;;;;;6210768;23;20622;-86
2023/10/15 17:04:15;;;;;;;0.90;0.80;;;24.40;55.50;;;;;;6211971;23;20923;-85
2023/10/15 17:06:47;;;;;;;0.82;0.75;;;24.30;55.50;;;;;;6211288;23;20171;-88
2023/10/15 17:09:16;;;;;;;0.73;0.60;;;24.20;55.50;;;;;;6212273;23;20173;-86
2023/10/15 17:11:49;;;;;;;0.88;0.55;;;24.20;55.60;;;;;;6211149;23;20206;-87
2023/10/15 17:14:17;;;;;;;0.57;0.57;;;24.10;56.30;;;;;;6209338;23;20217;-84
2023/10/15 17:16:46;;;;;;;0.80;0.65;;;24.10;55.60;;;;;;6210892;23;20187;-84
2023/10/15 17:19:15;;;;;;;8.90;0.82;;;24.10;55.80;;;;;;6211747;23;20174;-86
2023/10/15 17:21:48;;;;;;;2.30;0.90;;;24.10;55.90;;;;;;6211158;23;20998;-87
2023/10/15 17:24:19;;;;;;;0.47;0.47;;;24.00;56.00;;;;;;6211337;23;20254;-87
2023/10/15 17:26:49;;;;;;;0.80;0.70;;;23.90;56.20;;;;;;6208797;23;20624;-86
2023/10/15 17:29:20;;;;;;;0.85;0.85;;;23.90;56.20;;;;;;6210975;23;20167;-87
2023/10/15 17:31:53;;;;;;;1.38;1.27;;;23.80;56.20;;;;;;6211289;23;20171;-87
2023/10/15 17:34:27;;;;;;;1.10;1.00;;;23.80;56.30;;;;;;6210560;23;20198;-86
2023/10/15 17:36:57;;;;;;;1.23;0.80;;;23.70;56.30;;;;;;6210589;23;20270;-87
2023/10/15 17:39:44;;;;;;;1.13;1.05;;;23.70;57.10;;;;;;6210300;23;20176;-85
2023/10/15 17:42:18;;;;;;;14.05;1.75;;;23.70;58.10;;;;;;6209683;23;20167;-88
2023/10/15 17:44:46;;;;;;;1.77;1.25;;;23.60;58.50;;;;;;6210680;23;20217;-87
2023/10/15 17:47:15;;;;;;;1.50;1.00;;;23.60;58.60;;;;;;6212703;23;20246;-87
2023/10/15 17:49:46;;;;;;;6.50;1.30;;;23.50;59.10;;;;;;6211952;23;20167;-85
2023/10/15 17:52:21;;;;;;;2.78;1.83;;;23.50;59.30;;;;;;6211099;23;20501;-88
2023/10/15 17:54:52;;;;;;;3.88;1.48;;;23.40;59.80;;;;;;6211009;23;20692;-87
2023/10/15 17:57:31;;;;;;;9.68;3.45;;;23.40;59.80;;;;;;6211409;23;20660;-87
2023/10/15 17:59:59;;;;;;;2.03;1.30;;;23.30;59.90;;;;;;6208580;23;20173;-86
2023/10/15 18:02:30;;;;;;;1.80;1.38;;;23.30;59.90;;;;;;6209707;23;20177;-88
2023/10/15 18:05:02;;;;;;;0.65;0.60;;;23.30;60.00;;;;;;6210528;23;20559;-86
2023/10/15 18:07:36;;;;;;;20.67;4.80;;;23.30;59.90;;;;;;6212576;23;20169;-87
2023/10/15 18:10:08;;;;;;;0.70;0.63;;;23.20;59.90;;;;;;6213127;23;20221;-86
2023/10/15 18:12:41;;;;;;;4.53;1.95;;;23.20;59.90;;;;;;6211955;23;20190;-91
2023/10/15 18:15:11;;;;;;;2.13;1.35;;;23.20;60.90;;;;;;6209324;23;20175;-88
2023/10/15 18:17:43;;;;;;;1.90;1.73;;;23.10;60.70;;;;;;6212241;23;20174;-86
2023/10/15 18:20:14;;;;;;;3.05;1.67;;;23.10;60.80;;;;;;6213130;23;20164;-86
2023/10/15 18:22:45;;;;;;;2.35;1.27;;;23.10;61.20;;;;;;6212175;23;20163;-87
2023/10/15 18:25:15;;;;;;;4.68;3.08;;;23.00;61.00;;;;;;6212421;23;20194;-87
2023/10/15 18:27:49;;;;;;;3.80;1.42;;;23.00;61.30;;;;;;6211958;23;20250;-85
2023/10/15 18:30:19;;;;;;;1.42;1.00;;;22.90;61.20;;;;;;6212443;23;20167;-86
2023/10/15 18:32:49;;;;;;;21.27;2.65;;;22.90;61.60;;;;;;6214231;23;20163;-88
2023/10/15 18:35:26;;;;;;;0.95;0.88;;;22.80;62.20;;;;;;6212465;23;20186;-88
2023/10/15 18:38:04;;;;;;;2.35;0.95;;;22.80;62.30;;;;;;6210416;23;20203;-86
2023/10/15 18:40:41;;;;;;;11.13;1.27;;;22.80;62.30;;;;;;6211425;23;20817;-86
2023/10/15 18:43:18;;;;;;;1.65;1.35;;;22.80;62.30;;;;;;6208200;23;20171;-86
2023/10/15 18:45:48;;;;;;;0.65;0.65;;;22.80;62.50;;;;;;6213876;23;20159;-87
2023/10/15 18:48:17;;;;;;;8.73;1.42;;;22.80;62.60;;;;;;6214131;23;20245;-86
2023/10/15 18:50:47;;;;;;;1.08;0.85;;;22.80;62.50;;;;;;6207474;23;20167;-88
2023/10/15 18:53:16;;;;;;;1.98;1.25;;;22.70;62.40;;;;;;6209283;23;20195;-85
2023/10/15 18:55:45;;;;;;;1.85;0.90;;;22.80;62.50;;;;;;6211780;23;20168;-88
2023/10/15 18:58:19;;;;;;;2.20;1.42;;;22.70;62.40;;;;;;6212133;23;20214;-87
2023/10/15 19:00:48;;;;;;;2.08;1.48;;;22.70;62.30;;;;;;6210570;23;20661;-86
2023/10/15 19:03:17;;;;;;;1.38;0.88;;;22.70;62.40;;;;;;6211970;23;20175;-87
2023/10/15 19:05:47;;;;;;;1.13;0.90;;;22.70;62.60;;;;;;6212695;23;20171;-87
2023/10/15 19:08:30;;;;;;;1.42;1.30;;;22.70;62.60;;;;;;6214075;23;20171;-88
2023/10/15 19:11:13;;;;;;;4.70;1.92;;;22.70;62.70;;;;;;6213967;23;20167;-89
2023/10/15 19:13:58;;;;;;;4.05;1.17;;;22.60;62.70;;;;;;6213891;23;20183;-90
2023/10/15 19:17:29;;;;;;;3.83;1.50;;;22.60;62.90;;;;;;6214432;23;20225;-90
2023/10/15 19:26:31;;;;;;;0.95;0.88;;;22.50;63.80;;;;;;6215123;23;20179;-92
2023/10/15 19:29:05;;;;;;;3.15;1.45;;;22.50;63.90;;;;;;6212640;23;20167;-88
2023/10/15 19:31:35;;;;;;;2.17;1.90;;;22.40;63.90;;;;;;6214336;23;20233;-87
2023/10/15 19:34:06;;;;;;;5.95;1.88;;;22.40;64.00;;;;;;6212513;23;20218;-88
2023/10/15 19:36:35;;;;;;;3.50;1.33;;;22.40;64.10;;;;;;6223084;22;20627;-88
2023/10/15 19:39:07;;;;;;;1.13;0.90;;;22.40;64.00;;;;;;6273706;22;20176;-88
2023/10/15 19:41:37;;;;;;;2.08;1.65;;;22.40;64.10;;;;;;6273682;22;20162;-86
2023/10/15 19:44:11;;;;;;;1.25;0.90;;;22.30;64.40;;;;;;6273984;22;20201;-87
2023/10/15 19:47:00;;;;;;;1.35;1.08;;;22.30;64.30;;;;;;6272301;22;20195;-89
2023/10/15 19:49:31;;;;;;;0.98;0.88;;;22.30;64.30;;;;;;6274600;22;20161;-86
2023/10/15 19:52:16;;;;;;;2.03;1.30;;;22.30;64.30;;;;;;6269487;22;20166;-88
2023/10/15 19:54:45;;;;;;;2.22;0.77;;;22.30;64.20;;;;;;6271332;22;20200;-88
2023/10/15 19:57:14;;;;;;;2.70;1.88;;;22.30;64.60;;;;;;6269758;22;20189;-87
2023/10/15 19:59:45;;;;;;;5.38;1.50;;;22.30;64.90;;;;;;6270487;22;20165;-87
2023/10/15 20:02:23;;;;;;;1.17;1.08;;;22.30;64.90;;;;;;6272923;22;20162;-88